Airfield :
LOGIN :

Register | Disclaimer

   EN    FR    IT 

 










Legend :    VFR   Marginal VFR   IFR   Intensive IFR   Very Intensive IFR
Visi :
Ceiling :
>= 8 km
>= 3000ft
5 to 8 km
1000 to 3000 ft
1500m to 5 km
500 to 1000 ft
800 to 1500m
200 to 500 ft
< 800m
< 200 ft
Symbols :   Thunderstorms  Fog  Heavy snow  Heavy precipitations  Wind > 20 kt
SIGMETs :     Misc.  Thunderstorms  Icing  Turbulence  Mountain Waves  Volcanic Ashes






- Airport Elevation : 1302 ft
- IATA code : GNB


LFLS - Grenoble / St. Geoirs

CURRENT METAR :
  • 292300Z AUTO 00000KT 9999 OVC043 16/11 Q1014

EXPIRED METARs :
  • 292230Z AUTO 00000KT 9999 OVC047 16/12 Q1014
  • 292200Z AUTO VRB02KT 9999 BKN046 OVC052 16/12 Q1014
  • 292130Z AUTO 23003KT 9999 -RA BKN046 OVC058 17/12 Q1015
  • 292100Z AUTO VRB02KT 9999 FEW039 OVC048 17/13 Q1015
  • 292030Z AUTO 24003KT 9999 FEW040 BKN047 OVC062 17/14 Q1015
  • 292000Z AUTO VRB03KT 9999 FEW035 BKN043 BKN052 17/14 Q1014
  • 291930Z AUTO 24003KT 9999 OVC064 18/14 Q1014
  • 291900Z AUTO VRB03KT 9999 BKN068 OVC078 19/13 Q1014 NOSIG
  • 291830Z AUTO 20003KT 9999 FEW064 OVC084 19/12 Q1014 NOSIG

TAF TAF LFLS
Valid from the 29 at 15:00 until the 30 at 15:00 UTC


291400Z 2915/3015 VRB02KT CAVOK
BECMG 2919/2921 BKN030
TEMPO 3003/3008 4000 RA BKN020
PROB40
TEMPO 3008/3011 BKN008
FM301100 30007KT CAVOK
PROB40
TEMPO 3012/3015 -SHRA SCT030TCU
ATIS : +33 4 76 65 55 89



MET'MAP, your aeronautical weather chart ! - Copyright ORBIFLY December 2007 - Disclaimer

ORBIFLY MET'MAP TEAM :

Programming & Development : Alexandra Zaïnal
Original concept : Baudouin d'Aumeries
Technical & hardware support : Manuel Goepfert
Assistance : Marc-Olivier Méhu




SOURCES & CREDITS :

   NOAA